createdAt,value
2022-08-17T00:03:42.176Z,20.80
2022-08-17T00:07:11.140Z,20.10
2022-08-17T00:10:39.961Z,25.50
2022-08-17T00:14:08.767Z,22.50
2022-08-17T00:17:37.553Z,22.20
2022-08-17T00:21:10.269Z,24.00
2022-08-17T00:24:39.430Z,20.30
2022-08-17T00:28:07.961Z,21.30
2022-08-17T00:31:36.833Z,21.20
2022-08-17T00:35:05.348Z,22.10
2022-08-17T00:38:33.960Z,25.00
2022-08-17T00:42:02.469Z,17.70
2022-08-17T00:45:30.981Z,19.50
2022-08-17T00:48:59.560Z,17.90
2022-08-17T00:52:31.200Z,21.80
2022-08-17T00:56:00.315Z,27.30
2022-08-17T00:59:28.596Z,19.20
2022-08-17T01:02:57.400Z,19.90
2022-08-17T01:06:26.049Z,21.10
2022-08-17T01:09:54.798Z,23.30
2022-08-17T01:13:23.423Z,25.30
2022-08-17T01:16:52.139Z,25.50
2022-08-17T01:20:19.596Z,21.30
2022-08-17T01:23:48.237Z,27.30
2022-08-17T01:27:18.466Z,24.70
2022-08-17T01:30:58.507Z,25.70
2022-08-17T01:34:36.822Z,30.30
2022-08-17T01:38:12.137Z,24.60
2022-08-17T01:41:40.528Z,26.80
2022-08-17T01:45:09.097Z,25.70
2022-08-17T01:48:37.676Z,26.80
2022-08-17T01:52:09.029Z,28.00
2022-08-17T01:55:37.597Z,25.30
2022-08-17T01:59:06.152Z,33.40
2022-08-17T02:02:34.787Z,23.60
2022-08-17T02:06:03.377Z,26.00
2022-08-17T02:09:34.073Z,31.60
2022-08-17T02:13:02.780Z,28.70
2022-08-17T02:16:37.853Z,31.30
2022-08-17T02:20:06.824Z,25.60
2022-08-17T02:23:35.309Z,25.30
2022-08-17T02:27:03.945Z,29.10
2022-08-17T02:31:00.363Z,22.00
2022-08-17T02:34:21.300Z,26.20
2022-08-17T02:37:51.817Z,21.30
2022-08-17T02:41:17.027Z,25.60
2022-08-17T02:44:45.724Z,24.70
2022-08-17T02:48:14.363Z,24.20
2022-08-17T02:51:59.399Z,22.60
2022-08-17T02:55:28.027Z,24.10
2022-08-17T02:58:49.173Z,25.60
2022-08-17T03:02:10.525Z,24.30
2022-08-17T03:05:39.260Z,24.50
2022-08-17T03:09:00.776Z,20.50
2022-08-17T03:12:21.138Z,22.20
2022-08-17T03:15:33.133Z,28.40
2022-08-17T03:19:01.729Z,31.80
2022-08-17T03:22:35.348Z,24.30
2022-08-17T03:25:49.671Z,23.30
2022-08-17T03:29:19.774Z,22.40
2022-08-17T03:32:54.357Z,22.40
2022-08-17T03:36:22.977Z,28.20
2022-08-17T03:39:51.665Z,27.70
2022-08-17T03:43:20.319Z,31.50
2022-08-17T03:46:47.015Z,28.10
2022-08-17T03:50:04.764Z,30.40
2022-08-17T03:53:31.637Z,23.40
2022-08-17T03:57:03.130Z,22.00
2022-08-17T04:00:24.345Z,25.20
2022-08-17T04:03:50.483Z,29.80
2022-08-17T04:07:19.188Z,23.50
2022-08-17T04:10:47.979Z,23.40
2022-08-17T04:14:16.457Z,22.00
2022-08-17T04:17:45.087Z,26.00
2022-08-17T04:21:13.588Z,31.00
2022-08-17T04:24:42.127Z,30.50
2022-08-17T04:28:15.889Z,28.80
2022-08-17T04:31:45.684Z,33.90
2022-08-17T04:34:37.198Z,30.60
2022-08-17T04:37:08.811Z,30.00
2022-08-17T04:40:35.961Z,27.30
2022-08-17T04:43:47.446Z,25.20
2022-08-17T04:47:16.737Z,27.80
2022-08-17T04:50:45.525Z,31.60
2022-08-17T04:54:14.121Z,25.90
2022-08-17T04:57:45.073Z,27.90
2022-08-17T05:01:14.337Z,36.50
2022-08-17T05:04:42.967Z,30.50
2022-08-17T05:08:11.626Z,29.30
2022-08-17T05:11:40.398Z,31.10
2022-08-17T05:15:13.764Z,33.10
2022-08-17T05:18:42.508Z,34.00
2022-08-17T05:22:12.299Z,33.30
2022-08-17T05:25:42.747Z,34.20
2022-08-17T05:29:17.136Z,30.40
2022-08-17T05:32:49.449Z,32.30
2022-08-17T05:36:42.985Z,32.30
2022-08-17T05:40:15.311Z,31.70
2022-08-17T05:43:47.933Z,35.50
2022-08-17T05:47:17.978Z,40.80
2022-08-17T05:50:47.464Z,33.90
2022-08-17T05:54:31.566Z,32.50
2022-08-17T05:58:06.743Z,36.10
2022-08-17T06:01:45.563Z,26.30
2022-08-17T06:05:17.441Z,30.00
2022-08-17T06:09:04.521Z,32.70
2022-08-17T06:12:49.910Z,26.50
2022-08-17T06:16:31.103Z,31.70
2022-08-17T06:20:02.746Z,25.50
2022-08-17T06:23:31.373Z,29.20
2022-08-17T06:27:00.406Z,41.00
2022-08-17T06:30:35.744Z,31.80
2022-08-17T06:34:20.343Z,29.10
2022-08-17T06:37:47.318Z,30.80
2022-08-17T06:41:16.443Z,30.90
2022-08-17T06:44:43.198Z,29.00
2022-08-17T06:48:12.045Z,23.40
2022-08-17T06:51:40.906Z,23.10
2022-08-17T06:55:07.902Z,35.20
2022-08-17T06:58:46.768Z,32.80
2022-08-17T07:02:15.535Z,26.90
2022-08-17T07:05:44.004Z,25.00
2022-08-17T07:09:24.634Z,23.30
2022-08-17T07:12:56.471Z,21.30
2022-08-17T07:16:24.967Z,27.50
2022-08-17T07:19:53.459Z,23.60
2022-08-17T07:23:24.037Z,23.10
2022-08-17T07:26:52.598Z,26.10
2022-08-17T07:30:24.346Z,21.30
2022-08-17T07:33:53.115Z,24.40
2022-08-17T07:37:10.663Z,27.50
2022-08-17T07:40:39.336Z,22.70
2022-08-17T07:44:19.889Z,19.20
2022-08-17T07:47:46.620Z,18.60
2022-08-17T07:51:15.511Z,16.30
2022-08-17T07:54:47.085Z,16.20
2022-08-17T07:58:16.134Z,15.80
2022-08-17T08:01:45.383Z,18.20
2022-08-17T08:05:25.068Z,15.90
2022-08-17T08:09:08.742Z,15.70
2022-08-17T08:12:19.336Z,15.70
2022-08-17T08:15:54.071Z,19.40
2022-08-17T08:19:23.405Z,19.30
2022-08-17T08:22:51.948Z,16.30
2022-08-17T08:26:19.028Z,18.10
2022-08-17T08:29:56.993Z,16.10
2022-08-17T08:33:28.342Z,21.40
2022-08-17T08:37:16.432Z,17.00
2022-08-17T08:41:01.014Z,13.90
2022-08-17T08:45:01.151Z,18.60
2022-08-17T08:48:56.590Z,15.00
2022-08-17T08:52:18.604Z,14.60
2022-08-17T08:55:50.158Z,13.50
2022-08-17T08:59:30.766Z,12.60
2022-08-17T09:03:05.035Z,13.20
2022-08-17T09:06:39.072Z,13.90
2022-08-17T09:10:08.750Z,13.00
2022-08-17T09:13:28.983Z,13.60
2022-08-17T09:16:56.428Z,13.90
2022-08-17T09:20:37.078Z,15.70
2022-08-17T09:24:23.734Z,13.70
2022-08-17T09:27:42.648Z,14.50
2022-08-17T09:31:09.781Z,13.30
2022-08-17T09:34:37.457Z,13.10
2022-08-17T09:37:53.212Z,12.80
2022-08-17T09:41:22.032Z,13.10
2022-08-17T09:45:06.760Z,17.60
2022-08-17T09:48:44.722Z,12.20
2022-08-17T09:52:14.523Z,12.00
2022-08-17T09:55:47.042Z,12.20
2022-08-17T09:59:16.308Z,10.20
2022-08-17T10:03:02.177Z,9.60
2022-08-17T10:06:37.448Z,10.70
2022-08-17T10:10:14.337Z,13.00
2022-08-17T10:13:53.719Z,12.40
2022-08-17T10:17:23.615Z,11.00
2022-08-17T10:21:11.796Z,15.80
2022-08-17T10:24:39.473Z,16.20
2022-08-17T10:28:30.040Z,14.80
2022-08-17T10:31:51.355Z,14.50
2022-08-17T10:35:34.884Z,12.30
2022-08-17T10:39:03.883Z,11.20
2022-08-17T10:42:30.375Z,11.10
2022-08-17T10:46:09.496Z,11.00
2022-08-17T10:49:48.199Z,10.80
2022-08-17T10:53:23.727Z,11.00
2022-08-17T10:56:54.611Z,11.30
2022-08-17T11:00:27.510Z,9.30
2022-08-17T11:03:52.668Z,9.80
2022-08-17T11:07:07.903Z,9.80
2022-08-17T11:10:37.162Z,9.40
2022-08-17T11:14:06.636Z,25.80
2022-08-17T11:17:50.740Z,12.20
2022-08-17T11:21:29.167Z,10.30
2022-08-17T11:24:58.572Z,12.20
2022-08-17T11:28:29.166Z,10.90
2022-08-17T11:31:59.969Z,14.40
2022-08-17T11:35:29.547Z,12.10
2022-08-17T11:38:53.392Z,12.30
2022-08-17T11:42:11.825Z,9.60
2022-08-17T11:45:44.203Z,11.90
2022-08-17T11:49:04.085Z,9.10
2022-08-17T11:52:46.013Z,13.50
2022-08-17T11:56:19.899Z,10.20
2022-08-17T11:59:48.671Z,10.00
2022-08-17T12:03:17.725Z,10.80
2022-08-17T12:06:45.710Z,10.30
2022-08-17T12:10:14.881Z,10.70
2022-08-17T12:13:45.459Z,11.90
2022-08-17T12:17:14.587Z,9.80
2022-08-17T12:21:07.186Z,10.10
2022-08-17T12:24:51.451Z,13.10
2022-08-17T12:28:20.806Z,14.00
2022-08-17T12:31:56.424Z,16.20
2022-08-17T12:35:25.644Z,10.60
2022-08-17T12:38:57.242Z,12.20
2022-08-17T12:42:26.610Z,11.90
2022-08-17T12:46:13.347Z,13.20
2022-08-17T12:49:37.036Z,10.20
2022-08-17T12:53:05.790Z,8.80
2022-08-17T12:56:34.559Z,15.30
2022-08-17T13:00:04.029Z,7.80
2022-08-17T13:03:38.196Z,7.90
2022-08-17T13:07:08.407Z,8.30
2022-08-17T13:10:36.461Z,10.00
2022-08-17T13:14:08.838Z,8.20
2022-08-17T13:17:38.580Z,12.00
2022-08-17T13:21:07.998Z,12.80
2022-08-17T13:24:45.766Z,14.40
2022-08-17T13:28:14.901Z,9.20
2022-08-17T13:31:52.716Z,9.50
2022-08-17T13:35:29.674Z,8.40
2022-08-17T13:39:13.613Z,16.60
2022-08-17T13:42:50.584Z,13.20
2022-08-17T13:46:28.425Z,11.20
2022-08-17T13:49:58.871Z,9.10
2022-08-17T13:53:20.919Z,18.90
2022-08-17T13:56:50.025Z,11.10
2022-08-17T14:00:13.730Z,12.00
2022-08-17T14:03:44.307Z,11.90
2022-08-17T14:06:57.281Z,9.40
2022-08-17T14:10:25.925Z,13.20
2022-08-17T14:13:54.491Z,11.00
2022-08-17T14:17:23.064Z,9.70
2022-08-17T14:20:51.915Z,12.60
2022-08-17T14:24:19.307Z,11.60
2022-08-17T14:27:52.745Z,10.00
2022-08-17T14:31:22.237Z,9.70
2022-08-17T14:34:50.962Z,13.10
2022-08-17T14:38:20.281Z,11.70
2022-08-17T14:41:48.207Z,10.10
2022-08-17T14:45:00.010Z,10.00
2022-08-17T14:48:19.004Z,10.00
2022-08-17T14:51:44.041Z,12.50
2022-08-17T14:55:15.147Z,9.90
2022-08-17T14:58:26.814Z,10.10
2022-08-17T15:01:35.462Z,13.00
2022-08-17T15:05:04.167Z,13.90
2022-08-17T15:08:33.424Z,18.00
2022-08-17T15:12:02.139Z,10.10
2022-08-17T15:15:30.125Z,9.60
2022-08-17T15:19:00.296Z,16.30
2022-08-17T15:22:29.268Z,11.80
2022-08-17T15:25:59.814Z,11.10
2022-08-17T15:29:19.877Z,12.40
2022-08-17T15:32:54.134Z,12.30
2022-08-17T15:36:23.936Z,15.50
2022-08-17T15:39:53.102Z,12.60
2022-08-17T15:43:14.721Z,11.70
2022-08-17T15:46:43.343Z,20.60
2022-08-17T15:50:11.206Z,10.30
2022-08-17T15:53:40.296Z,10.80
2022-08-17T15:57:09.376Z,12.40
2022-08-17T16:00:49.407Z,9.90
2022-08-17T16:04:30.249Z,9.50
2022-08-17T16:07:45.434Z,10.50
2022-08-17T16:11:16.836Z,11.90
2022-08-17T16:14:45.497Z,14.80
2022-08-17T16:18:14.212Z,14.40
2022-08-17T16:21:45.594Z,10.00
2022-08-17T16:25:14.402Z,12.50
2022-08-17T16:28:43.613Z,10.30
2022-08-17T16:32:12.708Z,26.90
2022-08-17T16:35:41.477Z,21.80
2022-08-17T16:39:10.405Z,12.80
2022-08-17T16:42:39.424Z,11.50
2022-08-17T16:46:02.203Z,11.70
2022-08-17T16:49:36.815Z,10.30
2022-08-17T16:53:06.924Z,11.60
2022-08-17T16:56:35.985Z,11.90
2022-08-17T17:00:05.011Z,14.20
2022-08-17T17:03:33.962Z,10.90
2022-08-17T17:07:05.677Z,11.10
2022-08-17T17:10:34.728Z,19.00
2022-08-17T17:14:06.239Z,9.70
2022-08-17T17:17:44.690Z,9.50
2022-08-17T17:21:14.091Z,11.40
2022-08-17T17:24:45.902Z,11.60
2022-08-17T17:28:20.610Z,17.00
2022-08-17T17:31:58.832Z,16.00
2022-08-17T17:35:34.622Z,14.50
2022-08-17T17:39:03.787Z,12.80
2022-08-17T17:42:32.806Z,15.80
2022-08-17T17:46:26.687Z,10.50
2022-08-17T17:49:53.291Z,14.50
2022-08-17T17:53:22.523Z,11.90
2022-08-17T17:57:07.246Z,12.50
2022-08-17T18:00:15.934Z,20.50
2022-08-17T18:03:34.513Z,23.60
2022-08-17T18:06:33.491Z,11.90
2022-08-17T18:10:01.039Z,16.30
2022-08-17T18:13:30.914Z,12.10
2022-08-17T18:17:00.521Z,11.00
2022-08-17T18:20:40.935Z,28.50
2022-08-17T18:24:22.258Z,22.00
2022-08-17T18:27:53.982Z,15.40
2022-08-17T18:31:23.172Z,22.20
2022-08-17T18:35:04.545Z,30.50
2022-08-17T18:38:33.439Z,19.10
2022-08-17T18:42:02.639Z,23.50
2022-08-17T18:45:34.293Z,51.50
2022-08-17T18:49:00.670Z,28.70
2022-08-17T18:52:30.737Z,14.00
2022-08-17T18:56:01.160Z,29.60
2022-08-17T18:59:33.188Z,24.30
2022-08-17T19:02:54.192Z,25.30
2022-08-17T19:06:25.320Z,25.90
2022-08-17T19:10:00.669Z,37.50
2022-08-17T19:13:14.963Z,22.50
2022-08-17T19:16:14.222Z,21.20
2022-08-17T19:20:00.102Z,19.20
2022-08-17T19:23:19.419Z,26.10
2022-08-17T19:26:51.174Z,23.40
2022-08-17T19:30:14.311Z,27.50
2022-08-17T19:33:47.953Z,17.00
2022-08-17T19:37:21.358Z,22.90
2022-08-17T19:40:55.748Z,24.00
2022-08-17T19:44:29.025Z,25.90
2022-08-17T19:48:03.420Z,21.70
2022-08-17T19:51:32.132Z,22.10
2022-08-17T19:55:00.308Z,25.10
2022-08-17T19:58:27.691Z,22.80
2022-08-17T20:01:59.022Z,22.10
2022-08-17T20:05:44.249Z,25.40
2022-08-17T20:12:51.847Z,37.00
2022-08-17T20:16:20.935Z,20.10
2022-08-17T20:19:28.874Z,20.80
2022-08-17T20:23:00.538Z,26.10
2022-08-17T20:26:32.304Z,23.00
2022-08-17T20:30:06.186Z,18.80
2022-08-17T20:33:41.232Z,20.80
2022-08-17T20:36:59.206Z,16.80
2022-08-17T20:40:32.410Z,25.40
2022-08-17T20:44:06.409Z,23.10
2022-08-17T20:47:55.176Z,20.70
2022-08-17T20:51:33.056Z,21.70
2022-08-17T20:55:00.305Z,19.80
2022-08-17T20:58:30.918Z,16.50
2022-08-17T21:01:59.613Z,24.00
2022-08-17T21:05:07.498Z,18.90
2022-08-17T21:08:18.573Z,23.80
2022-08-17T21:12:03.205Z,22.00
2022-08-17T21:15:17.167Z,22.60
2022-08-17T21:18:55.410Z,22.00
2022-08-17T21:22:29.634Z,20.20
2022-08-17T21:25:42.976Z,29.60
2022-08-17T21:29:00.618Z,21.90
2022-08-17T21:32:34.116Z,17.40
2022-08-17T21:36:03.066Z,20.50
2022-08-17T21:39:16.141Z,17.00
2022-08-17T21:42:24.679Z,14.90
2022-08-17T21:46:02.517Z,17.30
2022-08-17T21:49:31.055Z,16.20
2022-08-17T21:53:06.526Z,20.10
2022-08-17T21:56:35.243Z,18.90
2022-08-17T22:00:03.863Z,23.40
2022-08-17T22:03:17.269Z,17.30
2022-08-17T22:06:57.912Z,25.00
2022-08-17T22:10:27.140Z,19.00
2022-08-17T22:14:00.657Z,20.70
2022-08-17T22:17:36.774Z,21.60
2022-08-17T22:20:29.460Z,16.40
2022-08-17T22:23:59.552Z,16.90
2022-08-17T22:27:22.176Z,24.50
2022-08-17T22:30:49.337Z,23.50
2022-08-17T22:34:17.907Z,15.80
2022-08-17T22:38:01.972Z,26.90
2022-08-17T22:41:30.519Z,20.30
2022-08-17T22:45:07.925Z,18.20
2022-08-17T22:48:36.512Z,25.50
2022-08-17T22:51:37.894Z,20.40
2022-08-17T22:55:09.377Z,20.50
2022-08-17T22:58:36.611Z,18.50
2022-08-17T23:02:05.123Z,22.60
2022-08-17T23:05:23.592Z,19.40
2022-08-17T23:08:04.836Z,20.20
2022-08-17T23:11:13.127Z,19.30
2022-08-17T23:14:01.354Z,17.60
2022-08-17T23:16:49.618Z,19.90
2022-08-17T23:20:04.257Z,19.80
2022-08-17T23:23:03.098Z,23.40
2022-08-17T23:26:11.633Z,21.80
2022-08-17T23:29:42.914Z,20.30
2022-08-17T23:33:11.624Z,26.70
2022-08-17T23:36:31.723Z,26.10
2022-08-17T23:40:00.752Z,27.60
2022-08-17T23:43:24.448Z,18.20
2022-08-17T23:46:54.330Z,30.70
2022-08-17T23:50:05.180Z,26.30
2022-08-17T23:53:13.560Z,20.90
2022-08-17T23:56:47.838Z,33.80
